Time;durP1;ratioP1;P1;durP2;ratioP2;P2;SDS_P1;SDS_P2;PMS_P1;PMS_P2;Temp;Humidity;BMP_temperature;BMP_pressure;BME280_temperature;BME280_humidity;BME280_pressure;Samples;Min_cycle;Max_cycle;Signal;HPM_P1;HPM_P2
2023/09/26 00:00:19;;;;;;;3.75;2.03;;;;;;;17.15;67.73;101531.47;5086163;28;20204;-66
2023/09/26 00:02:47;;;;;;;2.60;2.40;;;;;;;17.13;67.72;101533.25;5081050;28;20200;-67
2023/09/26 00:05:15;;;;;;;2.55;2.20;;;;;;;17.12;67.95;101530.66;5087882;28;20230;-66
2023/09/26 00:07:43;;;;;;;2.35;2.10;;;;;;;17.14;67.83;101531.50;5090621;28;20205;-67
2023/09/26 00:10:13;;;;;;;4.13;2.40;;;;;;;17.11;67.81;101523.72;5089933;28;20667;-69
2023/09/26 00:12:41;;;;;;;3.65;2.20;;;;;;;17.10;67.99;101535.03;5088805;28;20201;-67
2023/09/26 00:15:11;;;;;;;2.75;2.47;;;;;;;17.05;67.98;101526.44;5082057;28;20212;-68
2023/09/26 00:17:39;;;;;;;3.58;2.20;;;;;;;17.04;68.17;101524.69;5090325;28;20196;-67
2023/09/26 00:20:27;;;;;;;3.90;3.00;;;;;;;17.02;68.18;101535.16;5085374;28;20211;-68
2023/09/26 00:22:56;;;;;;;4.53;2.47;;;;;;;17.01;68.39;101527.34;5078802;28;20204;-66
2023/09/26 00:25:26;;;;;;;2.85;2.40;;;;;;;16.98;68.47;101517.00;5091076;28;20200;-67
2023/09/26 00:27:54;;;;;;;3.20;2.45;;;;;;;17.00;68.67;101517.81;5090052;28;20262;-67
2023/09/26 00:30:22;;;;;;;2.83;2.45;;;;;;;16.97;68.53;101520.47;5090163;28;20265;-65
2023/09/26 00:32:50;;;;;;;3.63;2.35;;;;;;;16.94;68.72;101521.38;5090690;28;20345;-68
2023/09/26 00:35:19;;;;;;;4.40;2.30;;;;;;;16.90;68.98;101517.13;5088435;28;20209;-67
2023/09/26 00:37:49;;;;;;;2.58;2.38;;;;;;;16.86;69.08;101526.72;5090378;28;20236;-67
2023/09/26 00:40:21;;;;;;;4.30;2.42;;;;;;;16.85;69.37;101517.16;5088999;28;20239;-66
2023/09/26 00:42:51;;;;;;;4.60;2.20;;;;;;;16.87;69.30;101517.16;5086202;28;20197;-66
2023/09/26 00:45:19;;;;;;;2.38;2.13;;;;;;;16.85;69.36;101516.28;5089014;28;20622;-67
2023/09/26 00:47:49;;;;;;;5.68;2.55;;;;;;;16.82;69.72;101516.34;5088442;28;20270;-65
2023/09/26 00:50:17;;;;;;;2.80;2.30;;;;;;;16.80;69.65;101516.38;5085041;28;20208;-66
2023/09/26 00:52:47;;;;;;;2.60;2.20;;;;;;;16.76;69.72;101512.09;5087947;28;20199;-68
2023/09/26 00:55:18;;;;;;;3.05;2.55;;;;;;;16.76;70.06;101512.09;5090132;28;20208;-66
2023/09/26 00:57:47;;;;;;;2.80;2.20;;;;;;;16.73;69.76;101508.63;5086091;28;20196;-67
2023/09/26 01:00:19;;;;;;;4.38;2.50;;;;;;;16.75;70.09;101509.50;5087559;28;20666;-66
2023/09/26 01:02:48;;;;;;;2.65;2.42;;;;;;;16.74;70.12;101510.38;5087017;28;20210;-67
2023/09/26 01:05:16;;;;;;;2.60;2.25;;;;;;;16.74;70.11;101508.63;5088105;28;20224;-67
2023/09/26 01:07:45;;;;;;;2.67;2.45;;;;;;;16.76;70.30;101512.09;5081407;28;20266;-67
2023/09/26 01:10:13;;;;;;;3.72;2.17;;;;;;;16.76;70.09;101504.28;5088031;28;20245;-65
2023/09/26 01:12:41;;;;;;;2.50;2.30;;;;;;;16.78;70.19;101507.69;5087104;28;20210;-67
2023/09/26 01:15:10;;;;;;;3.22;2.42;;;;;;;16.77;70.08;101502.53;5089079;28;20192;-67
2023/09/26 01:17:40;;;;;;;3.65;2.30;;;;;;;16.77;70.25;101518.16;5089645;28;20207;-67
2023/09/26 01:20:13;;;;;;;5.80;2.40;;;;;;;16.77;70.33;101506.00;5088918;28;20650;-67
2023/09/26 01:22:45;;;;;;;2.85;2.40;;;;;;;16.79;70.14;101513.75;5088943;28;20682;-66
2023/09/26 01:25:17;;;;;;;3.63;2.50;;;;;;;16.79;70.34;101508.56;5085744;28;20197;-66
2023/09/26 01:27:46;;;;;;;4.50;2.35;;;;;;;16.78;70.13;101507.69;5086854;28;20212;-67
2023/09/26 01:30:16;;;;;;;3.67;2.28;;;;;;;16.80;70.22;101505.09;5081056;28;20285;-67
2023/09/26 01:32:46;;;;;;;3.70;2.22;;;;;;;16.79;70.20;101501.63;5087908;28;20537;-67
2023/09/26 01:35:14;;;;;;;2.65;2.45;;;;;;;16.78;70.45;101504.25;5089701;28;20204;-65
2023/09/26 01:37:43;;;;;;;4.38;2.92;;;;;;;16.78;70.45;101505.09;5089820;28;20617;-65
2023/09/26 01:40:12;;;;;;;3.60;2.70;;;;;;;16.78;70.30;101505.09;5089074;28;20563;-69
2023/09/26 01:42:44;;;;;;;3.30;2.25;;;;;;;16.76;70.50;101499.06;5086144;28;20205;-68
2023/09/26 01:45:12;;;;;;;4.35;2.63;;;;;;;16.73;70.54;101500.81;5089629;28;20200;-68
2023/09/26 01:47:46;;;;;;;2.60;2.28;;;;;;;16.73;70.53;101504.28;5079630;28;20244;-68
2023/09/26 01:50:15;;;;;;;3.65;2.72;;;;;;;16.73;70.53;101506.03;5080913;28;20203;-67
2023/09/26 01:52:44;;;;;;;5.00;2.78;;;;;;;16.72;70.51;101504.31;5089562;28;20586;-67
2023/09/26 01:55:14;;;;;;;3.65;2.83;;;;;;;16.71;70.42;101502.56;5089274;28;20204;-66
2023/09/26 01:57:44;;;;;;;3.20;2.60;;;;;;;16.67;70.51;101496.53;5089147;28;20284;-67
2023/09/26 02:00:14;;;;;;;3.78;2.50;;;;;;;16.65;70.67;101501.78;5085543;28;20940;-67
2023/09/26 02:02:43;;;;;;;3.47;2.55;;;;;;;16.62;70.85;101498.38;5087265;28;20205;-67
2023/09/26 02:05:13;;;;;;;4.13;2.88;;;;;;;16.61;70.91;101496.66;5083278;28;20203;-67
2023/09/26 02:07:41;;;;;;;4.13;2.50;;;;;;;16.60;70.91;101495.75;5090433;28;20243;-66
2023/09/26 02:10:10;;;;;;;3.00;2.72;;;;;;;16.59;70.93;101504.47;5092369;28;20207;-66
2023/09/26 02:12:39;;;;;;;3.38;2.53;;;;;;;16.57;70.92;101494.94;5084938;28;20200;-68
2023/09/26 02:15:12;;;;;;;2.65;2.30;;;;;;;16.54;70.94;101498.47;5092515;28;20201;-68
2023/09/26 02:17:41;;;;;;;4.03;2.47;;;;;;;16.50;71.14;101493.34;5077828;28;20327;-67
2023/09/26 02:20:12;;;;;;;4.63;3.05;;;;;;;16.47;71.48;101495.97;5092427;28;20250;-67
2023/09/26 02:22:42;;;;;;;3.42;2.80;;;;;;;16.43;71.41;101498.59;5091595;28;20208;-66
2023/09/26 02:25:11;;;;;;;2.47;2.28;;;;;;;16.40;71.55;101498.63;5093345;28;20573;-67
2023/09/26 02:27:40;;;;;;;3.92;2.78;;;;;;;16.38;71.49;101500.38;5092775;28;20746;-68
2023/09/26 02:30:10;;;;;;;4.85;2.67;;;;;;;16.34;71.92;101497.84;5091449;28;20204;-67
2023/09/26 02:32:39;;;;;;;3.83;2.42;;;;;;;16.32;71.93;101499.63;5085480;28;20229;-67
2023/09/26 02:35:09;;;;;;;3.35;2.75;;;;;;;16.29;71.84;101497.91;5092991;28;20207;-67
2023/09/26 02:37:38;;;;;;;2.80;2.50;;;;;;;16.26;72.32;101504.88;5092323;28;20229;-67
2023/09/26 02:40:09;;;;;;;3.20;2.97;;;;;;;16.25;72.63;101497.97;5092094;28;20216;-67
2023/09/26 02:42:38;;;;;;;3.50;2.90;;;;;;;16.26;72.56;101499.69;5091326;28;20291;-67
2023/09/26 02:45:09;;;;;;;3.00;2.47;;;;;;;16.29;72.72;101504.84;5092624;28;20201;-66
2023/09/26 02:47:37;;;;;;;6.28;3.65;;;;;;;16.31;72.29;101500.47;5090969;28;20232;-66
2023/09/26 02:50:07;;;;;;;3.15;2.85;;;;;;;16.34;72.13;101503.91;5088804;28;20201;-67
2023/09/26 02:52:35;;;;;;;3.17;2.60;;;;;;;16.38;72.65;101504.72;5085075;28;20209;-68
2023/09/26 02:55:03;;;;;;;3.20;2.90;;;;;;;16.40;72.22;101496.03;5088273;28;20788;-67
2023/09/26 02:57:34;;;;;;;4.75;2.80;;;;;;;16.43;72.00;101501.19;5087942;28;20222;-66
2023/09/26 03:00:12;;;;;;;3.30;2.60;;;;;;;16.47;72.12;101506.38;5091167;28;20205;-67
2023/09/26 03:02:42;;;;;;;3.70;2.58;;;;;;;16.51;71.95;101500.25;5087120;28;20216;-67
2023/09/26 03:05:10;;;;;;;4.13;2.80;;;;;;;16.55;71.79;101500.19;5091657;28;20200;-67
2023/09/26 03:07:38;;;;;;;3.75;2.50;;;;;;;16.58;71.68;101502.75;5082192;28;20226;-66
2023/09/26 03:10:08;;;;;;;3.90;2.45;;;;;;;16.63;71.51;101502.69;5091678;28;20716;-66
2023/09/26 03:12:36;;;;;;;6.72;2.90;;;;;;;16.68;71.44;101500.91;5091603;28;20291;-66
2023/09/26 03:15:06;;;;;;;2.92;2.60;;;;;;;16.72;71.04;101492.16;5091639;28;20205;-66
2023/09/26 03:17:34;;;;;;;3.08;2.55;;;;;;;16.73;70.90;101490.41;5091216;28;20228;-69
2023/09/26 03:20:08;;;;;;;4.13;2.65;;;;;;;16.71;70.83;101482.59;5086535;28;20201;-66
2023/09/26 03:22:36;;;;;;;4.93;2.75;;;;;;;16.68;70.96;101482.69;5091738;28;20220;-66
2023/09/26 03:25:06;;;;;;;8.45;2.85;;;;;;;16.64;71.03;101488.78;5086389;28;20203;-67
2023/09/26 03:27:34;;;;;;;4.00;2.80;;;;;;;16.59;71.04;101477.56;5086159;28;20577;-66
2023/09/26 03:30:02;;;;;;;5.18;3.10;;;;;;;16.53;71.32;101482.84;5091421;28;20706;-68
2023/09/26 03:32:30;;;;;;;5.43;3.10;;;;;;;16.49;71.44;101481.19;5090542;28;20216;-67
2023/09/26 03:34:58;;;;;;;2.90;2.70;;;;;;;16.44;71.61;101486.44;5091196;28;20244;-66
2023/09/26 03:37:28;;;;;;;3.80;2.60;;;;;;;16.38;72.02;101484.75;5091263;28;20256;-66
2023/09/26 03:39:56;;;;;;;3.60;2.67;;;;;;;16.39;72.15;101481.31;5090691;28;20250;-66
2023/09/26 03:42:24;;;;;;;4.30;3.08;;;;;;;16.39;72.08;101481.31;5090275;28;20300;-67
2023/09/26 03:44:52;;;;;;;5.28;2.80;;;;;;;16.40;72.00;101476.97;5083235;28;20726;-68
2023/09/26 03:47:20;;;;;;;3.47;3.17;;;;;;;16.40;72.22;101475.22;5090524;28;20627;-66
2023/09/26 03:49:52;;;;;;;5.75;3.00;;;;;;;16.43;72.00;101477.78;5090759;28;20201;-68
2023/09/26 03:52:20;;;;;;;5.22;2.97;;;;;;;16.42;72.18;101475.19;5090870;28;20218;-68
2023/09/26 03:54:50;;;;;;;3.22;2.67;;;;;;;16.42;72.14;101468.28;5088513;28;20655;-66
2023/09/26 03:57:18;;;;;;;3.35;2.97;;;;;;;16.42;72.05;101470.88;5086544;28;20331;-68
2023/09/26 03:59:49;;;;;;;3.80;3.00;;;;;;;16.39;72.02;101470.03;5089717;28;20209;-68
2023/09/26 04:02:18;;;;;;;6.25;3.38;;;;;;;16.38;72.12;101463.97;5090564;28;20703;-66
2023/09/26 04:04:46;;;;;;;4.63;3.20;;;;;;;16.35;72.20;101468.38;5091705;28;20211;-67
2023/09/26 04:07:14;;;;;;;3.13;2.83;;;;;;;16.31;72.44;101453.66;5087986;28;20719;-68
2023/09/26 04:09:43;;;;;;;4.15;3.38;;;;;;;16.30;72.27;101463.19;5091603;28;20234;-68
2023/09/26 04:12:12;;;;;;;4.22;3.50;;;;;;;16.27;72.47;101460.63;5089087;28;20250;-67
2023/09/26 04:14:40;;;;;;;3.63;2.95;;;;;;;16.25;72.47;101466.75;5083011;28;20667;-67
2023/09/26 04:17:08;;;;;;;3.28;2.97;;;;;;;16.20;72.84;101456.41;5089207;28;20709;-67
2023/09/26 04:19:36;;;;;;;4.70;3.50;;;;;;;16.14;72.86;101462.53;5088192;28;20200;-68
2023/09/26 04:22:05;;;;;;;5.03;3.50;;;;;;;16.13;73.31;101462.56;5084289;28;20205;-67
2023/09/26 04:24:33;;;;;;;3.28;2.92;;;;;;;16.09;73.18;101458.25;5088442;28;20243;-67
2023/09/26 04:27:01;;;;;;;4.00;3.40;;;;;;;16.05;73.24;101456.56;5090456;28;20205;-67
2023/09/26 04:29:30;;;;;;;6.47;3.42;;;;;;;16.01;73.66;101454.88;5091711;28;20713;-67
2023/09/26 04:31:58;;;;;;;4.82;3.35;;;;;;;16.00;73.88;101455.78;5090091;28;20706;-68
2023/09/26 04:34:29;;;;;;;6.50;3.70;;;;;;;15.97;73.95;101455.81;5084594;28;20197;-67
2023/09/26 04:36:57;;;;;;;6.88;3.58;;;;;;;15.98;74.28;101449.72;5082760;28;20225;-68
2023/09/26 04:39:26;;;;;;;5.20;3.50;;;;;;;15.99;73.86;101449.72;5088258;28;20299;-67
2023/09/26 04:41:54;;;;;;;5.88;3.60;;;;;;;16.01;74.23;101447.09;5089577;28;20943;-67
2023/09/26 04:44:22;;;;;;;5.45;3.90;;;;;;;16.04;74.27;101457.47;5089158;28;20275;-69
2023/09/26 04:46:51;;;;;;;4.18;3.33;;;;;;;16.07;74.55;101458.28;5083533;28;20801;-69
2023/09/26 04:49:20;;;;;;;3.97;3.50;;;;;;;16.12;74.29;101459.06;5088113;28;20287;-66
2023/09/26 04:51:48;;;;;;;5.10;3.83;;;;;;;16.13;73.97;101458.22;5086754;28;20740;-67
2023/09/26 04:54:16;;;;;;;5.45;4.22;;;;;;;16.15;74.13;101460.78;5089754;28;20918;-67
2023/09/26 04:56:45;;;;;;;5.50;3.58;;;;;;;16.17;74.25;101459.03;5091675;28;20238;-66
2023/09/26 04:59:13;;;;;;;6.70;3.97;;;;;;;16.22;74.28;101464.19;5087013;28;20204;-69
2023/09/26 05:01:42;;;;;;;5.32;3.63;;;;;;;16.26;74.05;101466.72;5090948;28;20200;-70
2023/09/26 05:04:11;;;;;;;5.25;3.88;;;;;;;16.33;74.11;101470.13;5086592;28;20288;-68
2023/09/26 05:06:40;;;;;;;4.85;3.95;;;;;;;16.39;73.65;101473.50;5082034;28;20239;-65
2023/09/26 05:09:11;;;;;;;6.00;3.55;;;;;;;16.46;73.67;101476.00;5086091;28;20213;-65
2023/09/26 05:11:39;;;;;;;5.40;3.67;;;;;;;16.49;73.48;101470.78;5091751;28;20674;-64
2023/09/26 05:14:07;;;;;;;4.43;3.60;;;;;;;16.49;73.25;101465.56;5082647;28;20205;-65
2023/09/26 05:16:35;;;;;;;8.65;4.55;;;;;;;16.54;73.06;101463.78;5088049;28;20204;-64
2023/09/26 05:19:03;;;;;;;6.50;4.40;;;;;;;16.58;73.08;101471.53;5085676;28;20557;-65
2023/09/26 05:21:33;;;;;;;4.95;4.40;;;;;;;16.60;72.86;101474.09;5091322;28;20208;-64
2023/09/26 05:24:00;;;;;;;12.85;4.30;;;;;;;16.61;73.17;101474.09;5090643;28;20674;-63
2023/09/26 05:26:29;;;;;;;6.45;4.03;;;;;;;16.61;72.91;101466.28;5086813;28;20695;-65
2023/09/26 05:28:57;;;;;;;9.20;4.32;;;;;;;16.59;72.97;101465.44;5091273;28;20634;-64
2023/09/26 05:31:29;;;;;;;5.38;4.18;;;;;;;16.58;73.44;101470.66;5089699;28;20205;-66
2023/09/26 05:33:57;;;;;;;6.97;4.20;;;;;;;16.54;73.26;101471.59;5088555;28;20192;-66
2023/09/26 05:36:25;;;;;;;6.25;4.15;;;;;;;16.52;73.66;101468.13;5089351;28;20211;-66
2023/09/26 05:38:55;;;;;;;6.63;4.03;;;;;;;16.50;73.87;101467.31;5087074;28;20295;-66
2023/09/26 05:41:23;;;;;;;5.07;3.88;;;;;;;16.48;73.83;101467.31;5091860;28;21017;-66
2023/09/26 05:43:51;;;;;;;7.85;4.30;;;;;;;16.46;74.09;101468.19;5089682;28;20224;-64
2023/09/26 05:46:19;;;;;;;6.50;4.45;;;;;;;16.50;73.89;101472.50;5084763;28;20205;-67
2023/09/26 05:48:50;;;;;;;7.50;4.28;;;;;;;16.51;73.93;101463.81;5094261;28;20735;-64
2023/09/26 05:51:18;;;;;;;8.43;4.13;;;;;;;16.47;73.89;101463.00;5086772;28;20196;-70
2023/09/26 05:53:46;;;;;;;9.90;4.65;;;;;;;16.45;74.49;101467.34;5090611;28;20569;-71
2023/09/26 05:56:15;;;;;;;13.18;5.03;;;;;;;16.48;74.21;101475.13;5094736;28;20284;-71
2023/09/26 05:58:43;;;;;;;7.95;4.22;;;;;;;16.48;74.58;101469.06;5093568;28;20265;-70
2023/09/26 06:01:11;;;;;;;7.18;4.05;;;;;;;16.51;74.61;101472.47;5092428;28;20220;-71
2023/09/26 06:03:39;;;;;;;8.10;4.57;;;;;;;16.53;74.31;101477.66;5078293;28;20209;-70
2023/09/26 06:06:07;;;;;;;9.20;4.55;;;;;;;16.54;74.28;101474.19;5082202;28;20735;-67
2023/09/26 06:08:35;;;;;;;7.22;4.20;;;;;;;16.57;74.11;101476.72;5088754;28;20286;-68
2023/09/26 06:11:05;;;;;;;6.18;4.82;;;;;;;16.54;74.07;101463.78;5090697;28;20212;-71
2023/09/26 06:13:34;;;;;;;7.18;5.00;;;;;;;16.56;73.91;101473.25;5089628;28;20208;-66
2023/09/26 06:16:04;;;;;;;7.00;4.63;;;;;;;16.52;73.87;101473.34;5088051;28;20287;-66
2023/09/26 06:18:32;;;;;;;15.00;4.65;;;;;;;16.42;73.97;101470.88;5090269;28;20654;-68
2023/09/26 06:21:03;;;;;;;10.38;4.82;;;;;;;16.40;74.46;101466.56;5088560;28;20671;-67
2023/09/26 06:23:32;;;;;;;10.52;4.20;;;;;;;16.39;74.70;101465.69;5085171;28;20241;-68
2023/09/26 06:26:01;;;;;;;9.77;4.95;;;;;;;16.41;74.76;101466.53;5094036;28;20200;-67
2023/09/26 06:28:29;;;;;;;10.43;5.22;;;;;;;16.40;74.72;101470.00;5094155;28;20671;-67
2023/09/26 06:31:04;;;;;;;8.35;4.45;;;;;;;16.40;75.17;101470.00;5093695;28;20247;-67
2023/09/26 06:33:32;;;;;;;15.65;4.50;;;;;;;16.41;75.05;101474.31;5094094;28;20208;-66
2023/09/26 06:36:01;;;;;;;7.75;4.65;;;;;;;16.43;74.94;101472.59;5086159;28;20202;-69
2023/09/26 06:38:29;;;;;;;5.45;4.80;;;;;;;16.44;75.25;101473.44;5074683;28;20626;-66
2023/09/26 06:41:02;;;;;;;10.88;5.38;;;;;;;16.47;75.31;101477.75;5088972;28;20197;-62
2023/09/26 06:43:30;;;;;;;5.47;4.45;;;;;;;16.50;75.28;101467.31;5089243;28;20254;-63
2023/09/26 06:46:04;;;;;;;9.23;4.93;;;;;;;16.58;75.18;101481.06;5091671;28;20292;-64
2023/09/26 06:48:32;;;;;;;11.60;5.30;;;;;;;16.62;75.08;101478.41;5089330;28;20200;-63
2023/09/26 06:51:00;;;;;;;8.57;4.80;;;;;;;16.70;75.25;101486.09;5090140;28;20582;-62
2023/09/26 06:53:28;;;;;;;11.70;5.15;;;;;;;16.77;75.08;101482.56;5091333;28;20230;-62
2023/09/26 06:56:00;;;;;;;8.73;5.03;;;;;;;16.79;74.72;101483.41;5084477;28;20208;-63
2023/09/26 06:58:28;;;;;;;9.82;6.10;;;;;;;16.88;74.89;101482.41;5078593;28;20647;-63
2023/09/26 07:00:57;;;;;;;11.38;5.90;;;;;;;16.89;74.71;101482.38;5080729;28;20320;-63
2023/09/26 07:03:27;;;;;;;11.45;6.93;;;;;;;16.91;74.88;101487.59;5090367;28;20232;-63
2023/09/26 07:05:55;;;;;;;9.50;6.00;;;;;;;16.94;75.13;101481.44;5085291;28;20203;-63
2023/09/26 07:08:23;;;;;;;20.85;6.78;;;;;;;16.97;75.13;101482.25;5085537;28;20620;-62
2023/09/26 07:10:51;;;;;;;8.98;6.63;;;;;;;17.01;74.94;101480.47;5086107;28;20299;-62
2023/09/26 07:13:19;;;;;;;10.60;6.70;;;;;;;17.03;74.91;101483.94;5086372;28;20222;-65
2023/09/26 07:16:05;;;;;;;14.05;6.43;;;;;;;17.08;74.95;101482.09;5079592;28;20279;-64
2023/09/26 07:18:36;;;;;;;8.98;6.80;;;;;;;17.12;75.35;101483.78;5093541;28;20651;-62
2023/09/26 07:21:07;;;;;;;10.57;7.13;;;;;;;17.17;75.51;101487.19;5084871;28;20201;-63
2023/09/26 07:23:36;;;;;;;10.85;6.07;;;;;;;17.22;75.38;101485.34;5088435;28;20204;-64
2023/09/26 07:26:09;;;;;;;14.50;6.95;;;;;;;17.24;75.01;101488.81;5085339;28;20667;-61
2023/09/26 07:28:42;;;;;;;11.32;8.40;;;;;;;17.29;75.15;101491.34;5084717;28;20203;-63
2023/09/26 07:31:12;;;;;;;13.52;7.95;;;;;;;17.33;75.33;101495.59;5085801;28;20220;-67
2023/09/26 07:33:42;;;;;;;12.13;7.15;;;;;;;17.33;75.52;101493.00;5077075;28;20233;-67
2023/09/26 07:36:10;;;;;;;11.20;7.72;;;;;;;17.36;75.79;101483.38;5084431;28;20197;-67
2023/09/26 07:38:39;;;;;;;15.70;8.70;;;;;;;17.37;75.51;101490.31;5089406;28;20228;-66
2023/09/26 07:41:07;;;;;;;13.57;8.13;;;;;;;17.37;75.65;101498.13;5091494;28;20538;-68
2023/09/26 07:43:35;;;;;;;15.98;10.38;;;;;;;17.38;76.06;101481.63;5089730;28;20205;-77
2023/09/26 07:46:06;;;;;;;13.55;7.75;;;;;;;17.38;76.30;101481.63;5083219;28;20247;-69
2023/09/26 07:48:35;;;;;;;11.90;8.63;;;;;;;17.42;75.79;101489.41;5095468;28;20286;-71
2023/09/26 07:51:06;;;;;;;11.75;8.32;;;;;;;17.46;75.97;101494.53;5093843;28;20219;-69
2023/09/26 07:53:35;;;;;;;11.40;8.05;;;;;;;17.52;76.03;101490.94;5083026;28;20205;-72
2023/09/26 07:56:03;;;;;;;12.90;8.25;;;;;;;17.56;75.74;101488.28;5085493;28;20224;-71
2023/09/26 07:58:31;;;;;;;12.10;8.57;;;;;;;17.61;75.79;101488.19;5088826;28;20232;-71
2023/09/26 08:01:00;;;;;;;13.25;7.63;;;;;;;17.67;75.40;101489.81;5084131;28;20208;-67
2023/09/26 08:03:29;;;;;;;10.30;8.07;;;;;;;17.67;75.06;101489.81;5084641;28;20228;-69
2023/09/26 08:06:00;;;;;;;8.90;6.95;;;;;;;17.69;75.46;101490.66;5089205;28;20200;-68
2023/09/26 08:08:30;;;;;;;14.85;8.27;;;;;;;17.77;75.43;101491.41;5088741;28;20240;-67
2023/09/26 08:11:06;;;;;;;15.40;9.35;;;;;;;17.82;75.21;101482.63;5079631;28;20208;-70
2023/09/26 08:13:35;;;;;;;11.60;8.55;;;;;;;17.89;74.83;101485.09;5086848;28;20200;-70
2023/09/26 08:16:04;;;;;;;14.82;9.05;;;;;;;17.93;74.77;101485.03;5081819;28;20193;-68
2023/09/26 08:18:33;;;;;;;12.95;8.40;;;;;;;17.95;74.48;101487.59;5090135;28;20196;-69
2023/09/26 08:21:01;;;;;;;15.57;8.35;;;;;;;17.99;74.59;101491.88;5090946;28;20249;-69
2023/09/26 08:23:30;;;;;;;13.52;8.43;;;;;;;18.02;74.52;101486.59;5077831;28;20600;-69
2023/09/26 08:26:00;;;;;;;13.48;9.10;;;;;;;18.06;74.61;101485.66;5087278;28;20209;-70
2023/09/26 08:28:28;;;;;;;16.35;9.60;;;;;;;18.11;74.61;101483.78;5085984;28;20239;-69
2023/09/26 08:30:57;;;;;;;12.35;9.18;;;;;;;18.14;74.50;101483.75;5088927;28;20787;-69
2023/09/26 08:33:26;;;;;;;17.13;10.20;;;;;;;18.21;74.50;101479.25;5090691;28;20204;-68
2023/09/26 08:35:54;;;;;;;18.83;10.02;;;;;;;18.23;74.31;101477.50;5075969;28;20204;-69
2023/09/26 08:38:22;;;;;;;12.93;9.85;;;;;;;18.24;74.34;101474.00;5084404;28;20614;-68
2023/09/26 08:40:52;;;;;;;13.02;9.73;;;;;;;18.24;73.97;101476.59;5086834;28;20201;-69
2023/09/26 08:43:24;;;;;;;13.10;9.93;;;;;;;18.17;74.26;101475.84;5086326;28;20695;-77
2023/09/26 08:45:52;;;;;;;14.52;9.63;;;;;;;18.16;74.72;101475.91;5086659;28;20193;-69
2023/09/26 08:48:21;;;;;;;13.00;9.88;;;;;;;18.15;74.42;101480.22;5087641;28;20303;-69
2023/09/26 08:50:52;;;;;;;15.52;10.50;;;;;;;18.14;74.53;101475.91;5091777;28;20252;-68
2023/09/26 08:53:21;;;;;;;19.08;10.02;;;;;;;18.15;74.73;101466.34;5082156;28;20320;-65
2023/09/26 08:55:50;;;;;;;16.48;9.43;;;;;;;18.20;74.91;101465.38;5083466;28;20311;-64
2023/09/26 08:58:21;;;;;;;16.10;10.55;;;;;;;18.27;74.49;101468.72;5086524;28;20208;-65
2023/09/26 09:00:50;;;;;;;18.45;11.52;;;;;;;18.35;74.43;101470.25;5090345;28;20274;-64
2023/09/26 09:03:19;;;;;;;15.20;10.77;;;;;;;18.41;74.03;101466.69;5080736;28;20574;-64
2023/09/26 09:05:48;;;;;;;13.40;10.70;;;;;;;18.45;73.30;101467.47;5087146;28;20675;-63
2023/09/26 09:08:20;;;;;;;16.52;11.13;;;;;;;18.44;73.40;101466.59;5091516;28;20667;-66
2023/09/26 09:10:49;;;;;;;16.00;10.98;;;;;;;18.39;73.41;101462.38;5081105;28;20316;-66
2023/09/26 09:13:29;;;;;;;17.58;11.85;;;;;;;18.36;73.85;101468.50;5084734;28;20627;-69
2023/09/26 09:16:11;;;;;;;15.82;11.00;;;;;;;18.41;74.00;101461.47;5082888;28;20208;-69
2023/09/26 09:18:42;;;;;;;16.05;11.18;;;;;;;18.51;73.70;101467.31;5085557;28;20634;-71
2023/09/26 09:21:25;;;;;;;18.05;12.73;;;;;;;18.64;73.50;101462.72;5092991;28;20212;-70
2023/09/26 09:23:58;;;;;;;14.23;11.20;;;;;;;18.73;73.08;101465.13;5094918;28;20988;-71
2023/09/26 09:26:29;;;;;;;17.98;12.35;;;;;;;18.75;72.14;101464.22;5090449;28;20677;-67
2023/09/26 09:29:16;;;;;;;20.50;12.18;;;;;;;18.79;72.26;101468.47;5088111;28;20679;-66
2023/09/26 09:31:44;;;;;;;15.32;11.98;;;;;;;18.83;72.24;101464.03;5097041;28;20223;-66
2023/09/26 09:34:12;;;;;;;15.25;11.88;;;;;;;18.85;71.70;101467.44;5086582;28;20708;-64
2023/09/26 09:36:41;;;;;;;15.57;12.65;;;;;;;18.82;70.91;101463.19;5084208;28;20211;-67
2023/09/26 09:39:09;;;;;;;18.02;12.63;;;;;;;18.81;70.94;101466.69;5086357;28;20651;-65
2023/09/26 09:41:38;;;;;;;15.02;12.05;;;;;;;18.77;71.01;101474.59;5080947;28;20253;-64
2023/09/26 09:44:07;;;;;;;19.05;13.88;;;;;;;18.75;71.82;101464.22;5086167;28;20205;-64
2023/09/26 09:46:38;;;;;;;15.65;12.13;;;;;;;18.79;71.57;101472.84;5086522;28;20197;-63
2023/09/26 09:49:10;;;;;;;16.65;12.68;;;;;;;18.85;72.02;101471.81;5088835;28;20204;-64
2023/09/26 09:51:43;;;;;;;13.95;11.68;;;;;;;18.93;71.38;101467.31;5088112;28;20213;-64
2023/09/26 09:54:13;;;;;;;14.88;12.15;;;;;;;19.01;70.67;101465.34;5090225;28;20633;-64
2023/09/26 09:56:46;;;;;;;17.50;12.38;;;;;;;19.07;70.65;101462.56;5087641;28;20209;-64
2023/09/26 09:59:16;;;;;;;16.15;11.77;;;;;;;19.12;70.34;101460.72;5086701;28;20197;-64
2023/09/26 10:01:49;;;;;;;13.40;11.13;;;;;;;19.20;69.94;101469.22;5087881;28;20276;-64
2023/09/26 10:04:19;;;;;;;16.17;11.18;;;;;;;19.24;69.75;101459.56;5087491;28;20201;-64
2023/09/26 10:06:48;;;;;;;15.20;11.77;;;;;;;19.30;70.29;101462.88;5088478;28;20308;-64
2023/09/26 10:09:20;;;;;;;13.50;11.73;;;;;;;19.33;69.58;101456.75;5095178;28;20193;-66
2023/09/26 10:11:50;;;;;;;15.70;11.50;;;;;;;19.36;69.47;101464.47;5085686;28;20217;-64
2023/09/26 10:14:23;;;;;;;14.90;11.52;;;;;;;19.35;69.46;101448.84;5078587;28;20985;-64
2023/09/26 10:16:55;;;;;;;14.30;11.98;;;;;;;19.37;68.80;101465.31;5085423;28;20571;-64
2023/09/26 10:19:25;;;;;;;14.50;12.05;;;;;;;19.39;69.11;101461.78;5089740;28;20699;-65
2023/09/26 10:22:17;;;;;;;14.38;11.73;;;;;;;19.52;69.46;101451.88;5090923;28;20196;-64
2023/09/26 10:24:47;;;;;;;15.35;12.52;;;;;;;19.66;68.68;101457.66;5089538;28;20192;-63
2023/09/26 10:27:23;;;;;;;18.48;13.18;;;;;;;19.77;68.16;101445.13;5085017;28;20223;-65
2023/09/26 10:29:56;;;;;;;15.40;12.10;;;;;;;19.85;67.54;101446.69;5085994;28;20223;-64
2023/09/26 10:32:32;;;;;;;20.98;14.15;;;;;;;19.89;67.36;101443.09;5087674;28;20220;-65
2023/09/26 10:35:23;;;;;;;19.05;12.88;;;;;;;19.91;67.42;101438.66;5091935;28;20200;-63
2023/09/26 10:37:56;;;;;;;17.35;14.00;;;;;;;20.16;67.46;101438.81;5088871;28;20709;-65
2023/09/26 10:40:24;;;;;;;16.98;13.38;;;;;;;20.40;66.85;101438.09;5090059;28;20253;-65
2023/09/26 10:42:52;;;;;;;16.92;13.02;;;;;;;20.67;65.94;101433.81;5090032;28;20275;-63
2023/09/26 10:45:45;;;;;;;18.15;13.50;;;;;;;21.08;64.82;101434.22;5090771;28;20266;-64
2023/09/26 10:48:18;;;;;;;16.17;13.45;;;;;;;21.41;63.49;101432.25;5089938;28;20201;-64
2023/09/26 10:50:47;;;;;;;16.67;12.75;;;;;;;21.43;61.54;101422.59;5085727;28;20224;-65
2023/09/26 10:53:15;;;;;;;15.65;12.25;;;;;;;21.43;62.09;101432.22;5090345;28;20286;-66
2023/09/26 10:55:43;;;;;;;15.13;12.43;;;;;;;21.44;61.79;101426.06;5090624;28;20296;-65
2023/09/26 10:58:20;;;;;;;19.20;13.60;;;;;;;21.42;61.94;101418.22;5085415;28;20279;-65
2023/09/26 11:00:53;;;;;;;19.30;12.88;;;;;;;21.41;62.11;101418.31;5088420;28;20204;-65
2023/09/26 11:03:21;;;;;;;15.13;11.60;;;;;;;21.45;61.95;101417.28;5090246;28;20266;-65
2023/09/26 11:05:50;;;;;;;14.80;12.02;;;;;;;21.55;61.49;101416.06;5080645;28;20286;-66
2023/09/26 11:08:38;;;;;;;16.98;12.48;;;;;;;21.70;61.48;101415.50;5085943;28;20663;-65
2023/09/26 11:11:08;;;;;;;14.52;11.68;;;;;;;21.82;60.73;101410.72;5091242;28;20555;-65
2023/09/26 11:13:36;;;;;;;15.55;12.05;;;;;;;21.93;60.44;101408.56;5091465;28;20228;-65
2023/09/26 11:16:07;;;;;;;14.32;11.07;;;;;;;21.98;59.76;101411.84;5090918;28;20815;-66
2023/09/26 11:18:35;;;;;;;14.57;11.52;;;;;;;22.04;59.91;101410.78;5082269;28;20660;-65
2023/09/26 11:21:04;;;;;;;17.10;11.82;;;;;;;22.09;59.71;101409.72;5091810;28;20231;-66
2023/09/26 11:23:52;;;;;;;14.55;11.25;;;;;;;22.21;59.46;101412.81;5085690;28;20731;-67
2023/09/26 11:26:21;;;;;;;13.07;11.30;;;;;;;22.37;59.25;101403.44;5082308;28;20679;-65
2023/09/26 11:28:50;;;;;;;16.98;11.57;;;;;;;22.52;58.24;101405.44;5084090;28;20204;-65
2023/09/26 11:31:20;;;;;;;15.02;11.15;;;;;;;22.54;57.95;101398.38;5088077;28;20207;-66